Racecast

Phoenix Dennis

Hilltop Speed (CA) · - · PAC · Compare head to head

Athlete rating
Races 97
Seasons 5 2014 — 2018

Track & Field

2018 TF

Hilltop Speed (CA) · Grade -

Date Meet Event Result Place Rating Difficulty PR/SR Flags
2018-06-24 USATF Pacific Association Junior Olympic Championships 100m 14 20th · 5th on team -0.029
2018-06-24 USATF Pacific Association Junior Olympic Championships 200m 30.01 22nd · 3rd on team -0.029
2018-06-14 AAU Region 22 JO Qualifier 400m 1:04.96 5th · 1st on team -0.043
2018-06-14 AAU Region 22 JO Qualifier 100m 14.27 10th · 2nd on team -0.043
2018-06-10 Pacific Association Championships (Youth) 400m 1:04.79 9th · 2nd on team -0.044
2018-06-10 Pacific Association Championships (Youth) 200m 28.51 22nd · 4th on team -0.044 SR
2018-06-10 Pacific Association Championships (Youth) 100m 14.32 28th · 4th on team -0.044
2018-05-27 Tom Moore Youth Invitational 200m 28.81 28th · 4th on team -0.040
2018-05-27 Tom Moore Youth Invitational 400m 1:04.87 12th · 2nd on team -0.040
2018-05-27 Tom Moore Youth Invitational 100m 14.02 29th · 4th on team -0.040
2018-05-20 3M TC Invitational 400m 1:04.12 13th · 1st on team -0.040 ★PR SR
2018-05-20 3M TC Invitational 100m 14.01 26th · 3rd on team -0.040
2018-05-05 Running Rebels meet 200m 28.88 25th · 2nd on team -0.044
2018-05-05 Running Rebels meet 400m 1:04.19 12th · 1st on team -0.044 PR SR
2018-04-28 Revolution Express Track Club AAU Youth Meet 100m 13.84 2nd · 1st on team -0.032 SR
2018-04-28 Revolution Express Track Club AAU Youth Meet 200m 28.8 2nd · 1st on team -0.032 SR
2018-04-14 CA Track Club Invitational 400m 1:05.04 5th · 1st on team -0.045 SR
2018-04-07 Speed Showcase 400m 1:06.27 5th · 1st on team -0.042 SR
2018-04-07 Speed Showcase 200m 29.91 5th · 1st on team -0.042 SR
2018-04-07 Speed Showcase 100m 14.34 9th · 2nd on team -0.042 SR

2017 TF

Hilltop Speed (CA) · Grade -

Date Meet Event Result Place Rating Difficulty PR/SR Flags
2017-07-16 California State Games 200m 28.44 5th · 1st on team -0.039
2017-07-16 California State Games 100m 13.85 12th · 2nd on team -0.039
2017-07-16 California State Games 100m 13.79 9th · 1st on team -0.039
2017-07-02 AAU West Coast National Championship 200m 28.26 7th · 1st on team -0.008 ★PR SR
2017-07-02 AAU West Coast National Championship 400m 1:06.68 4th · 1st on team -0.008
2017-07-02 AAU West Coast National Championship 200m 28.91 11th · 2nd on team -0.008
2017-07-02 AAU West Coast National Championship 100m 13.81 8th · 1st on team -0.008
2017-07-02 AAU West Coast National Championship 100m 13.94 13th · 2nd on team -0.008
2017-06-16 2017 AAU Region 22 Junior Olympics 100m 13.77 3rd · 1st on team -0.040 ★PR SR
2017-06-16 2017 AAU Region 22 Junior Olympics 400m 1:04.81 2nd · 1st on team -0.040 PR SR
2017-05-21 Stockton Saints Invitational 100m 13.94 8th · 2nd on team -0.043 PR SR
2017-05-21 Stockton Saints Invitational 200m 28.63 14th · 1st on team -0.043 PR SR
2017-05-21 Stockton Saints Invitational 100m 13.9 7th · 1st on team -0.043 PR SR
2017-05-21 Stockton Saints Invitational 200m 28.74 16th · 2nd on team -0.043
2017-05-07 Hercules/Running Rebels USATF PA Youth T&F 200m 29.74 19th · 1st on team -0.047 SR
2017-05-07 Hercules/Running Rebels USATF PA Youth T&F 100m 13.96 17th · 1st on team -0.047 PR SR
2017-04-22 Shor/Sheppard USATF PA Youth T&F 200m 29.98 6th · 1st on team -0.046 SR
2017-04-22 Shor/Sheppard USATF PA Youth T&F 100m 14.35 5th · 1st on team -0.046 SR
2017-03-11 Flying Jaguars Youth Track Meet 100m 14.7 6th · 1st on team -0.037 SR
2017-03-11 Flying Jaguars Youth Track Meet 400m 1:06.41 3rd · 1st on team -0.037 SR

2016 TF

Hilltop Speed (CA) · Grade -

Date Meet Event Result Place Rating Difficulty PR/SR Flags
2016-07-03 AAU West Coast National Track & Field Championships 200m 29.56 6th · 1st on team -0.005
2016-07-03 AAU West Coast National Track & Field Championships 400m 1:07.02 1st · 1st on team -0.005
2016-06-12 USATF Pacific Association Youth Championship 100m 14.34 27th · 2nd on team -0.043 PR SR
2016-06-12 USATF Pacific Association Youth Championship 200m 29.44 24th · 2nd on team -0.043
2016-06-12 USATF Pacific Association Youth Championship 400m 1:05.68 4th · 1st on team -0.043 PR SR
2016-05-29 Central Valley Roadrunners USATF Youth 400m 1:07.87 6th · 2nd on team -0.043
2016-05-29 Central Valley Roadrunners USATF Youth 100m 14.43 18th · 1st on team -0.043
2016-05-29 Central Valley Roadrunners USATF Youth 200m 29.25 14th · 1st on team -0.043 PR SR
2016-05-15 3M USATF Youth T&F Meet 100m 14.74 24th · 1st on team -0.040
2016-05-15 3M USATF Youth T&F Meet 400m 1:06.92 16th · 1st on team -0.040 PR SR
2016-05-01 Tommie Smith Invitational 100m 14.42 7th · 1st on team -0.041 PR SR
2016-05-01 Tommie Smith Invitational 100m 14.47 8th · 2nd on team -0.041
2016-05-01 Tommie Smith Invitational 400m 1:12.99 9th · 1st on team -0.041
2016-04-09 Contra Costa Cheetahs Invitational 100m 15.14 18th · 2nd on team -0.030
2016-04-02 Sac Speed Factory USATF Youth T&F Meet 400m 1:10.18 16th · 3rd on team -0.042 PR SR
2016-04-02 Sac Speed Factory USATF Youth T&F Meet 100m 15.07 27th · 2nd on team -0.042 PR SR
2016-04-02 Sac Speed Factory USATF Youth T&F Meet 200m 30.95 23rd · 2nd on team -0.042 PR SR

2015 TF

Hilltop Speed (CA) · Grade -

Date Meet Event Result Place Rating Difficulty PR/SR Flags
2015-07-19 California State Games 400m 1:10.92 4th · 1st on team -0.040 PR SR
2015-07-19 California State Games 100m 15.41 21st · 2nd on team -0.040 PR SR
2015-06-21 USATF Pacific Association Junior Olympic Championships 200m 32.45 23rd · 1st on team -0.039
2015-06-21 USATF Pacific Association Junior Olympic Championships 400m 1:14.84 20th · 2nd on team -0.039 PR SR
2015-05-31 PAC (Pacific Association Youth Champions 400m 1:18.71 23rd · 2nd on team -0.032
2015-05-31 PAC (Pacific Association Youth Champions 200m 32.28 27th · 2nd on team -0.032 PR SR
2015-05-23 LA Jets 2015 Invitational 100m 15.44 38th · 2nd on team -0.045 PR SR
2015-05-23 LA Jets 2015 Invitational 400m 1:16.37 34th · 1st on team -0.045 PR SR
2015-05-16 3M Track Club Track and Field Invitation 200m 33.12 20th · 2nd on team -0.040 PR SR
2015-05-16 3M Track Club Track and Field Invitation 400m 1:17.96 14th · 2nd on team -0.040 PR SR
2015-04-25 Revolution Express Track Club 200m 33.83 13th · 1st on team -0.032 PR SR
2015-04-25 Revolution Express Track Club 400m 1:18.18 17th · 2nd on team -0.032 PR SR
2015-04-18 CA Track Club 400m 1:21.75 7th · 1st on team -0.048
2015-04-18 CA Track Club 200m 34.53 9th · 1st on team -0.048
2015-04-18 CA Track Club 100m 15.73 8th · 1st on team -0.048 PR SR
2015-04-11 Big Valley Track Club Invitational 400m 1:18.47 10th · 2nd on team -0.043 PR SR
2015-04-11 Big Valley Track Club Invitational 100m 15.8 14th · 3rd on team -0.043 PR SR
2015-03-28 Contra Costa Cheetahs 100m 16.04 24th · 4th on team -0.030 PR SR
2015-03-28 Contra Costa Cheetahs 200m 33.89 16th · 3rd on team -0.030 PR SR
2015-03-21 RPM Legacy 100m 16.07 27th · 2nd on team -0.030 SR
2015-03-21 RPM Legacy 400m 1:20.47 22nd · 3rd on team -0.030 SR

2014 TF

Hilltop Speed (CA) · Grade -

Date Meet Event Result Place Rating Difficulty PR/SR Flags
2014-07-11 California Games 100m 16.51 42nd · 3rd on team -0.037
2014-07-11 California Games 400m 1:19.6 31st · 3rd on team -0.037 PR SR
2014-06-20 USATF Pacific Assoc. Junior Olympics (Top 8) 100m 16.07 29th · 4th on team -0.038 PR SR
2014-06-20 USATF Pacific Assoc. Junior Olympics (Top 8) 200m 34.94 40th · 5th on team -0.038 PR SR
2014-05-31 Pacific Association Championships (PAC) 400m 1:21.2 32nd · 3rd on team -0.032 PR SR
2014-05-31 Pacific Association Championships (PAC) 100m 16.43 33rd · 2nd on team -0.032
2014-05-31 Pacific Association Championships (PAC) 200m 34.97 42nd · 4th on team -0.032 PR SR
2014-05-25 Los Angeles Jets Invitational 100m 16.58 70th · 3rd on team -0.049
2014-05-25 Los Angeles Jets Invitational 400m 1:22.51 67th · 3rd on team -0.049 PR SR
2014-04-26 Revolution Express TC 100m 16.79 24th · 3rd on team -0.032
2014-04-26 Revolution Express TC 200m 36.77 26th · 4th on team -0.032
2014-04-12 Stocton Saints 200m 36.76 15th · 4th on team -0.043
2014-04-12 Stocton Saints 100m 16.53 11th · 3rd on team -0.043
2014-04-05 Sacramento Speed Showcase 200m 35.55 15th · 2nd on team -0.042 PR SR
2014-04-05 Sacramento Speed Showcase 400m 1:26.66 30th · 3rd on team -0.042
2014-04-05 Sacramento Speed Showcase 100m 16.62 28th · 4th on team -0.042
2014-03-29 East County Cheetahs TC 100m 16.97 15th · 3rd on team -0.030
2014-03-22 RPM 100m 16.24 12th · 2nd on team -0.019 PR SR
2014-03-22 RPM 400m 1:26.04 20th · 2nd on team -0.019 PR SR